createdAt,value
2023-02-14T00:01:20.918Z,2.24
2023-02-14T00:03:49.702Z,2.28
2023-02-14T00:06:17.046Z,2.29
2023-02-14T00:08:45.267Z,2.30
2023-02-14T00:11:14.034Z,2.32
2023-02-14T00:14:01.500Z,2.32
2023-02-14T00:16:28.799Z,2.36
2023-02-14T00:21:50.175Z,2.42
2023-02-14T00:24:24.001Z,2.42
2023-02-14T00:26:52.383Z,2.42
2023-02-14T00:29:29.813Z,2.42
2023-02-14T00:31:57.486Z,2.40
2023-02-14T00:34:25.311Z,2.38
2023-02-14T00:36:52.994Z,2.40
2023-02-14T00:39:20.680Z,2.38
2023-02-14T00:41:47.895Z,2.37
2023-02-14T00:44:15.371Z,2.35
2023-02-14T00:46:43.620Z,2.39
2023-02-14T00:49:11.016Z,2.43
2023-02-14T00:51:39.029Z,2.44
2023-02-14T00:54:06.594Z,2.44
2023-02-14T00:56:33.949Z,2.42
2023-02-14T00:59:01.206Z,2.36
2023-02-14T01:01:29.117Z,2.30
2023-02-14T01:03:56.995Z,2.25
2023-02-14T01:06:24.454Z,2.26
2023-02-14T01:08:52.333Z,2.29
2023-02-14T01:11:22.150Z,2.28
2023-02-14T01:13:50.893Z,2.26
2023-02-14T01:16:21.354Z,2.23
2023-02-14T01:18:49.452Z,2.22
2023-02-14T01:21:23.096Z,2.22
2023-02-14T01:23:52.942Z,2.24
2023-02-14T01:26:22.461Z,2.25
2023-02-14T01:28:50.719Z,2.26
2023-02-14T01:31:27.899Z,2.28
2023-02-14T01:33:56.667Z,2.29
2023-02-14T01:36:26.788Z,2.28
2023-02-14T01:38:56.982Z,2.25
2023-02-14T01:41:26.131Z,2.20
2023-02-14T01:44:02.882Z,2.20
2023-02-14T01:46:34.949Z,2.22
2023-02-14T01:49:19.017Z,2.24
2023-02-14T01:51:53.605Z,2.26
2023-02-14T01:54:24.629Z,2.31
2023-02-14T01:56:58.102Z,2.31
2023-02-14T01:59:31.382Z,2.29
2023-02-14T02:04:56.868Z,2.24
2023-02-14T02:07:27.704Z,2.25
2023-02-14T02:10:02.019Z,2.24
2023-02-14T02:12:31.000Z,2.28
2023-02-14T02:15:00.477Z,2.30
2023-02-14T02:17:49.560Z,2.34
2023-02-14T02:20:41.247Z,2.38
2023-02-14T02:23:09.042Z,2.38
2023-02-14T02:26:13.552Z,2.33
2023-02-14T02:29:18.437Z,2.29
2023-02-14T02:31:52.056Z,2.28
2023-02-14T02:34:38.665Z,2.28
2023-02-14T02:37:33.363Z,2.31
2023-02-14T02:40:22.988Z,2.33
2023-02-14T02:42:56.351Z,2.29
2023-02-14T02:45:37.737Z,2.23
2023-02-14T02:48:10.709Z,2.21
2023-02-14T02:51:08.559Z,2.20
2023-02-14T02:53:35.970Z,2.20
2023-02-14T02:56:30.516Z,2.20
2023-02-14T02:59:07.057Z,2.23
2023-02-14T03:01:40.069Z,2.27
2023-02-14T03:04:31.113Z,2.26
2023-02-14T03:07:00.230Z,2.27
2023-02-14T03:09:27.454Z,2.25
2023-02-14T03:12:23.235Z,2.25
2023-02-14T03:14:58.919Z,2.24
2023-02-14T03:18:04.935Z,2.24
2023-02-14T03:20:46.032Z,2.21
2023-02-14T03:23:30.907Z,2.20
2023-02-14T03:26:05.383Z,2.17
2023-02-14T03:28:47.932Z,2.18
2023-02-14T03:31:35.045Z,2.21
2023-02-14T03:34:11.699Z,2.21
2023-02-14T03:36:43.455Z,2.22
2023-02-14T03:39:39.989Z,2.20
2023-02-14T03:42:17.726Z,2.21
2023-02-14T03:44:48.505Z,2.23
2023-02-14T03:47:22.025Z,2.26
2023-02-14T03:49:57.992Z,2.28
2023-02-14T03:52:28.924Z,2.30
2023-02-14T03:54:59.057Z,2.27
2023-02-14T03:57:37.815Z,2.23
2023-02-14T04:00:06.436Z,2.19
2023-02-14T04:02:47.221Z,2.21
2023-02-14T04:05:24.721Z,2.26
2023-02-14T04:07:55.187Z,2.26
2023-02-14T04:10:23.884Z,2.28
2023-02-14T04:12:51.754Z,2.31
2023-02-14T04:15:19.547Z,2.31
2023-02-14T04:18:05.733Z,2.30
2023-02-14T04:20:34.732Z,2.30
2023-02-14T04:23:03.532Z,2.27
2023-02-14T04:25:31.262Z,2.23
2023-02-14T04:27:58.839Z,2.21
2023-02-14T04:30:27.185Z,2.19
2023-02-14T04:32:55.247Z,2.15
2023-02-14T04:35:22.820Z,2.12
2023-02-14T04:37:50.421Z,2.13
2023-02-14T04:40:18.216Z,2.11
2023-02-14T04:42:46.423Z,2.08
2023-02-14T04:45:14.583Z,2.06
2023-02-14T04:47:42.577Z,2.08
2023-02-14T04:50:11.659Z,2.13
2023-02-14T04:52:39.722Z,2.16
2023-02-14T04:55:08.110Z,2.18
2023-02-14T04:57:35.562Z,2.24
2023-02-14T05:00:04.308Z,2.22
2023-02-14T05:02:33.348Z,2.23
2023-02-14T05:05:00.877Z,2.24
2023-02-14T05:07:29.116Z,2.22
2023-02-14T05:09:56.807Z,2.16
2023-02-14T05:12:24.477Z,2.15
2023-02-14T05:14:52.333Z,2.17
2023-02-14T05:17:19.905Z,2.16
2023-02-14T05:19:47.373Z,2.21
2023-02-14T05:22:16.838Z,2.25
2023-02-14T05:24:45.667Z,2.21
2023-02-14T05:27:13.879Z,2.20
2023-02-14T05:29:41.606Z,2.22
2023-02-14T05:32:09.482Z,2.19
2023-02-14T05:34:36.882Z,2.18
2023-02-14T05:37:04.745Z,2.19
2023-02-14T05:39:32.297Z,2.22
2023-02-14T05:42:00.769Z,2.20
2023-02-14T05:44:28.234Z,2.18
2023-02-14T05:46:55.985Z,2.17
2023-02-14T05:49:23.310Z,2.16
2023-02-14T05:51:50.883Z,2.14
2023-02-14T05:54:18.605Z,2.14
2023-02-14T05:56:46.105Z,2.16
2023-02-14T05:59:15.108Z,2.20
2023-02-14T06:01:42.685Z,2.25
2023-02-14T06:04:10.161Z,2.25
2023-02-14T06:06:38.245Z,2.24
2023-02-14T06:09:06.044Z,2.18
2023-02-14T06:11:58.630Z,2.15
2023-02-14T06:14:28.388Z,2.12
2023-02-14T06:17:01.793Z,2.12
2023-02-14T06:19:50.105Z,2.10
2023-02-14T06:23:19.549Z,2.10
2023-02-14T06:27:07.857Z,2.12
2023-02-14T06:30:57.366Z,2.13
2023-02-14T06:34:45.765Z,2.16
2023-02-14T06:38:33.997Z,2.18
2023-02-14T06:42:22.532Z,2.18
2023-02-14T06:46:10.695Z,2.16
2023-02-14T06:50:08.552Z,2.19
2023-02-14T06:53:56.523Z,2.20
2023-02-14T06:57:44.638Z,2.26
2023-02-14T07:01:32.779Z,2.27
2023-02-14T07:05:22.160Z,2.29
2023-02-14T07:09:10.161Z,2.26
2023-02-14T07:12:58.252Z,2.29
2023-02-14T07:16:46.390Z,2.32
2023-02-14T07:20:34.288Z,2.30
2023-02-14T07:24:22.906Z,2.28
2023-02-14T07:28:11.789Z,2.30
2023-02-14T07:32:02.573Z,2.34
2023-02-14T07:39:35.609Z,2.41
2023-02-14T07:43:23.590Z,2.41
2023-02-14T07:47:11.955Z,2.41
2023-02-14T07:51:00.283Z,2.41
2023-02-14T07:54:48.453Z,2.42
2023-02-14T07:58:36.512Z,2.46
2023-02-14T08:02:31.744Z,2.54
2023-02-14T08:06:19.813Z,2.58
2023-02-14T08:10:07.997Z,2.57
2023-02-14T08:13:56.924Z,2.59
2023-02-14T08:17:47.639Z,2.62
2023-02-14T08:21:35.440Z,2.68
2023-02-14T08:25:23.449Z,2.74
2023-02-14T08:29:11.375Z,2.80
2023-02-14T08:32:59.803Z,2.83
2023-02-14T08:36:47.632Z,2.85
2023-02-14T08:40:35.861Z,2.89
2023-02-14T08:44:23.857Z,2.93
2023-02-14T08:48:12.061Z,2.97
2023-02-14T08:52:00.057Z,2.96
2023-02-14T08:55:51.152Z,3.03
2023-02-14T08:59:39.083Z,3.12
2023-02-14T09:03:27.391Z,3.14
2023-02-14T09:07:14.930Z,3.17
2023-02-14T09:11:03.465Z,3.21
2023-02-14T09:14:51.440Z,3.32
2023-02-14T09:18:42.254Z,3.36
2023-02-14T09:22:30.448Z,3.38
2023-02-14T09:26:18.854Z,3.40
2023-02-14T09:30:06.730Z,3.43
2023-02-14T09:33:55.424Z,3.47
2023-02-14T09:37:43.433Z,3.51
2023-02-14T09:41:31.791Z,3.57
2023-02-14T09:45:40.800Z,3.63
2023-02-14T09:49:31.707Z,3.59
2023-02-14T09:53:19.747Z,3.54
2023-02-14T09:57:11.891Z,3.55
2023-02-14T10:05:14.813Z,3.56
2023-02-14T10:09:05.867Z,3.54
2023-02-14T10:13:09.197Z,3.56
2023-02-14T10:16:58.062Z,3.61
2023-02-14T10:20:58.586Z,3.65
2023-02-14T10:24:52.168Z,3.64
2023-02-14T10:28:43.617Z,3.61
2023-02-14T10:32:40.829Z,3.70
2023-02-14T10:36:44.099Z,3.78
2023-02-14T10:40:38.785Z,3.79
2023-02-14T10:44:42.007Z,3.77
2023-02-14T10:48:34.520Z,3.83
2023-02-14T10:52:46.699Z,3.85
2023-02-14T10:56:35.290Z,3.86
2023-02-14T11:00:34.080Z,3.90
2023-02-14T11:04:23.378Z,3.93
2023-02-14T11:08:14.782Z,3.95
2023-02-14T11:12:03.669Z,4.00
2023-02-14T11:15:58.869Z,4.01
2023-02-14T11:19:28.840Z,4.01
2023-02-14T11:23:17.029Z,3.96
2023-02-14T11:27:04.700Z,3.91
2023-02-14T11:30:55.362Z,3.90
2023-02-14T11:34:44.118Z,3.88
2023-02-14T11:38:34.371Z,3.94
2023-02-14T11:42:27.273Z,4.02
2023-02-14T11:45:05.793Z,4.00
2023-02-14T11:47:47.920Z,4.02
2023-02-14T11:51:21.410Z,4.04
2023-02-14T11:54:52.699Z,4.08
2023-02-14T11:58:42.039Z,4.10
2023-02-14T12:02:31.268Z,4.17
2023-02-14T12:05:52.660Z,4.26
2023-02-14T12:08:33.929Z,4.27
2023-02-14T12:11:06.743Z,4.28
2023-02-14T12:13:34.344Z,4.32
2023-02-14T12:16:08.464Z,4.35
2023-02-14T12:19:12.356Z,4.39
2023-02-14T12:21:59.666Z,4.38
2023-02-14T12:25:11.325Z,4.36
2023-02-14T12:28:02.086Z,4.37
2023-02-14T12:30:35.075Z,4.39
2023-02-14T12:33:47.139Z,4.46
2023-02-14T12:36:41.182Z,4.53
2023-02-14T12:39:37.781Z,4.52
2023-02-14T12:43:03.512Z,4.51
2023-02-14T12:46:32.395Z,4.52
2023-02-14T12:49:31.514Z,4.54
2023-02-14T12:52:57.560Z,4.60
2023-02-14T12:56:13.966Z,4.60
2023-02-14T12:59:30.249Z,4.65
2023-02-14T13:02:36.832Z,4.65
2023-02-14T13:05:57.395Z,4.68
2023-02-14T13:09:19.372Z,4.69
2023-02-14T13:12:00.980Z,4.66
2023-02-14T13:15:24.066Z,4.66
2023-02-14T13:18:19.366Z,4.68
2023-02-14T13:21:16.498Z,4.63
2023-02-14T13:24:27.452Z,4.63
2023-02-14T13:27:22.348Z,4.64
2023-02-14T13:30:19.920Z,4.60
2023-02-14T13:32:56.011Z,4.62
2023-02-14T13:35:32.595Z,4.65
2023-02-14T13:38:10.522Z,4.69
2023-02-14T13:41:01.671Z,4.66
2023-02-14T13:43:59.516Z,4.65
2023-02-14T13:46:33.584Z,4.68
2023-02-14T13:49:08.017Z,4.69
2023-02-14T13:51:58.592Z,4.71
2023-02-14T13:54:48.392Z,4.72
2023-02-14T13:57:59.946Z,4.71
2023-02-14T14:00:41.851Z,4.66
2023-02-14T14:03:34.737Z,4.64
2023-02-14T14:06:08.929Z,4.59
2023-02-14T14:08:42.289Z,4.54
2023-02-14T14:11:36.005Z,4.54
2023-02-14T14:14:24.902Z,4.58
2023-02-14T14:17:03.360Z,4.50
2023-02-14T14:19:30.522Z,4.44
2023-02-14T14:22:02.617Z,4.43
2023-02-14T14:24:32.359Z,4.42
2023-02-14T14:27:01.448Z,4.35
2023-02-14T14:29:39.128Z,4.30
2023-02-14T14:32:11.497Z,4.30
2023-02-14T14:34:48.811Z,4.30
2023-02-14T14:37:23.429Z,4.27
2023-02-14T14:39:56.685Z,4.27
2023-02-14T14:42:28.294Z,4.29
2023-02-14T14:45:03.349Z,4.32
2023-02-14T14:47:43.954Z,4.32
2023-02-14T14:50:22.817Z,4.29
2023-02-14T14:52:57.439Z,4.27
2023-02-14T14:55:35.029Z,4.23
2023-02-14T14:58:04.951Z,4.19
2023-02-14T15:00:39.262Z,4.12
2023-02-14T15:03:13.179Z,4.08
2023-02-14T15:05:43.831Z,4.07
2023-02-14T15:08:33.495Z,4.02
2023-02-14T15:11:08.106Z,4.01
2023-02-14T15:13:51.578Z,3.99
2023-02-14T15:16:20.197Z,3.95
2023-02-14T15:18:49.529Z,3.95
2023-02-14T15:21:18.433Z,3.95
2023-02-14T15:23:48.245Z,3.96
2023-02-14T15:26:40.176Z,3.95
2023-02-14T15:29:08.442Z,3.94
2023-02-14T15:32:18.386Z,3.92
2023-02-14T15:35:22.055Z,3.84
2023-02-14T15:38:29.290Z,3.82
2023-02-14T15:41:56.691Z,3.82
2023-02-14T15:45:39.065Z,3.77
2023-02-14T15:48:39.745Z,3.74
2023-02-14T15:51:48.170Z,3.70
2023-02-14T15:55:19.799Z,3.67
2023-02-14T15:58:34.628Z,3.68
2023-02-14T16:02:02.486Z,3.72
2023-02-14T16:05:29.743Z,3.69
2023-02-14T16:09:21.876Z,3.64
2023-02-14T16:12:52.966Z,3.64
2023-02-14T16:16:20.494Z,3.63
2023-02-14T16:19:35.769Z,3.65
2023-02-14T16:22:44.582Z,3.68
2023-02-14T16:26:31.987Z,3.67
2023-02-14T16:30:00.003Z,3.63
2023-02-14T16:33:30.529Z,3.61
2023-02-14T16:37:16.211Z,3.61
2023-02-14T16:40:43.994Z,3.57
2023-02-14T16:44:12.441Z,3.51
2023-02-14T16:47:17.001Z,3.48
2023-02-14T16:50:53.445Z,3.48
2023-02-14T16:54:40.548Z,3.42
2023-02-14T16:58:30.943Z,3.42
2023-02-14T17:02:26.703Z,3.39
2023-02-14T17:06:14.328Z,3.37
2023-02-14T17:10:02.386Z,3.38
2023-02-14T17:13:32.273Z,3.38
2023-02-14T17:17:00.981Z,3.36
2023-02-14T17:20:48.827Z,3.30
2023-02-14T17:24:35.929Z,3.29
2023-02-14T17:28:23.329Z,3.29
2023-02-14T17:31:05.320Z,3.22
2023-02-14T17:34:03.770Z,3.23
2023-02-14T17:36:59.184Z,3.24
2023-02-14T17:39:29.243Z,3.26
2023-02-14T17:41:58.870Z,3.25
2023-02-14T17:44:27.026Z,3.27
2023-02-14T17:47:04.169Z,3.27
2023-02-14T17:49:32.683Z,3.24
2023-02-14T17:52:01.824Z,3.17
2023-02-14T17:54:50.011Z,3.10
2023-02-14T17:57:18.666Z,3.08
2023-02-14T17:59:52.315Z,3.09
2023-02-14T18:02:21.572Z,3.13
2023-02-14T18:04:50.908Z,3.16
2023-02-14T18:07:40.354Z,3.18
2023-02-14T18:10:10.440Z,3.17
2023-02-14T18:13:04.254Z,3.15
2023-02-14T18:15:34.607Z,3.11
2023-02-14T18:18:11.702Z,3.06
2023-02-14T18:20:39.973Z,3.03
2023-02-14T18:23:13.496Z,3.02
2023-02-14T18:26:07.621Z,3.03
2023-02-14T18:28:37.849Z,2.95
2023-02-14T18:31:11.375Z,2.95
2023-02-14T18:33:42.445Z,2.90
2023-02-14T18:36:21.906Z,2.86
2023-02-14T18:38:53.249Z,2.87
2023-02-14T18:41:47.118Z,2.88
2023-02-14T18:44:15.813Z,2.91
2023-02-14T18:46:43.671Z,2.92
2023-02-14T18:49:14.216Z,2.93
2023-02-14T18:51:43.727Z,2.92
2023-02-14T18:54:13.950Z,2.93
2023-02-14T18:56:45.793Z,2.93
2023-02-14T18:59:18.396Z,2.93
2023-02-14T19:01:48.719Z,2.92
2023-02-14T19:04:19.947Z,2.89
2023-02-14T19:06:50.653Z,2.87
2023-02-14T19:09:19.772Z,2.87
2023-02-14T19:11:50.594Z,2.89
2023-02-14T19:14:22.337Z,2.91
2023-02-14T19:16:56.798Z,2.91
2023-02-14T19:19:25.469Z,2.89
2023-02-14T19:21:54.773Z,2.83
2023-02-14T19:24:29.816Z,2.73
2023-02-14T19:27:02.613Z,2.68
2023-02-14T19:29:31.348Z,2.68
2023-02-14T19:31:59.938Z,2.70
2023-02-14T19:34:31.407Z,2.72
2023-02-14T19:37:01.884Z,2.72
2023-02-14T19:39:36.467Z,2.71
2023-02-14T19:42:10.605Z,2.71
2023-02-14T19:44:39.218Z,2.68
2023-02-14T19:47:23.520Z,2.66
2023-02-14T19:49:59.201Z,2.67
2023-02-14T19:52:31.629Z,2.69
2023-02-14T19:55:41.861Z,2.72
2023-02-14T19:58:44.471Z,2.71
2023-02-14T20:01:37.289Z,2.59
2023-02-14T20:04:10.918Z,2.46
2023-02-14T20:06:49.859Z,2.47
2023-02-14T20:09:22.888Z,2.43
2023-02-14T20:11:55.463Z,2.39
2023-02-14T20:14:35.953Z,2.40
2023-02-14T20:17:11.739Z,2.43
2023-02-14T20:19:40.632Z,2.41
2023-02-14T20:22:09.437Z,2.44
2023-02-14T20:24:39.516Z,2.47
2023-02-14T20:27:10.332Z,2.51
2023-02-14T20:29:40.870Z,2.50
2023-02-14T20:32:09.521Z,2.48
2023-02-14T20:34:39.771Z,2.48
2023-02-14T20:37:08.758Z,2.47
2023-02-14T20:39:39.380Z,2.47
2023-02-14T20:42:09.567Z,2.48
2023-02-14T20:44:38.135Z,2.50
2023-02-14T20:47:10.492Z,2.48
2023-02-14T20:49:40.261Z,2.37
2023-02-14T20:52:08.854Z,2.37
2023-02-14T20:54:41.709Z,2.39
2023-02-14T20:57:10.176Z,2.40
2023-02-14T20:59:40.315Z,2.40
2023-02-14T21:02:10.626Z,2.41
2023-02-14T21:04:38.670Z,2.37
2023-02-14T21:07:11.712Z,2.23
2023-02-14T21:09:43.420Z,2.23
2023-02-14T21:12:12.168Z,2.24
2023-02-14T21:14:43.349Z,2.26
2023-02-14T21:17:13.838Z,2.29
2023-02-14T21:19:43.664Z,2.30
2023-02-14T21:22:13.607Z,2.30
2023-02-14T21:24:41.961Z,2.33
2023-02-14T21:27:14.052Z,2.35
2023-02-14T21:29:42.507Z,2.38
2023-02-14T21:32:15.041Z,2.38
2023-02-14T21:34:44.580Z,2.33
2023-02-14T21:37:19.207Z,2.32
2023-02-14T21:39:46.365Z,2.29
2023-02-14T21:42:13.476Z,2.15
2023-02-14T21:44:59.014Z,2.10
2023-02-14T21:47:26.349Z,2.07
2023-02-14T21:50:12.832Z,2.04
2023-02-14T21:52:40.160Z,2.09
2023-02-14T21:55:07.732Z,2.13
2023-02-14T21:57:34.993Z,2.17
2023-02-14T22:00:02.158Z,2.17
2023-02-14T22:02:29.631Z,2.19
2023-02-14T22:04:57.107Z,2.16
2023-02-14T22:07:27.522Z,2.13
2023-02-14T22:09:54.937Z,2.09
2023-02-14T22:12:22.731Z,2.09
2023-02-14T22:14:49.897Z,2.14
2023-02-14T22:17:17.219Z,2.18
2023-02-14T22:19:45.328Z,2.22
2023-02-14T22:22:15.009Z,2.26
2023-02-14T22:24:42.152Z,2.25
2023-02-14T22:27:09.856Z,2.26
2023-02-14T22:29:37.333Z,2.24
2023-02-14T22:32:07.542Z,2.25
2023-02-14T22:34:38.137Z,2.26
2023-02-14T22:37:05.038Z,2.20
2023-02-14T22:39:32.136Z,2.17
2023-02-14T22:42:05.779Z,2.18
2023-02-14T22:44:33.584Z,2.12
2023-02-14T22:47:03.308Z,2.04
2023-02-14T22:49:31.261Z,1.85
2023-02-14T22:51:58.371Z,1.79
2023-02-14T22:54:25.335Z,1.80
2023-02-14T22:56:52.573Z,1.85
2023-02-14T22:59:24.716Z,1.89
2023-02-14T23:01:55.178Z,1.94
2023-02-14T23:04:25.208Z,1.98
2023-02-14T23:06:54.000Z,1.94
2023-02-14T23:09:21.592Z,1.94
2023-02-14T23:11:49.525Z,1.99
2023-02-14T23:14:41.427Z,2.01
2023-02-14T23:17:15.365Z,1.94
2023-02-14T23:20:02.574Z,1.92
2023-02-14T23:22:33.212Z,1.91
2023-02-14T23:25:03.821Z,1.89
2023-02-14T23:27:39.685Z,1.92
2023-02-14T23:30:10.737Z,1.93
2023-02-14T23:32:37.783Z,1.93
2023-02-14T23:35:05.454Z,1.95
2023-02-14T23:37:37.472Z,1.92
2023-02-14T23:40:05.176Z,1.77
2023-02-14T23:42:32.715Z,1.64
2023-02-14T23:45:19.832Z,1.62
2023-02-14T23:47:46.890Z,1.69
2023-02-14T23:50:14.020Z,1.73
2023-02-14T23:52:42.504Z,1.77
2023-02-14T23:55:09.830Z,1.82
2023-02-14T23:57:40.027Z,1.85
